Hauptseite
METAR-TAF:

METAR-TAF

Flughäfen :

Flughafen Kuwait

Kuwait-Stadt, Kuwait

Breite: 29-13N, Länge: 047-59E, Höhe: 55 m

Beobachtung

Neuester Wetterbericht von vor 47 Minuten, um 07:00 UTC
Wind 6 kt aus Ost/Südost
Temperatur 36°C
Luftfeuchtigkeit 60%
Luftdruck 1007 hPa
Sichtweite: 6000 m
Himmel klar

METAR: OKBK 190700Z 12006KT 6000 SKC 36/27 Q1007 NOSIG

Zeit: 10:47 (07:47 UTC)

Prognose

Neuester Wetterbericht von vor 3 Stunden und 2 Minuten, um 04:45 UTC
Gültige Prognose vom 19 um 06 UTC bis 20 um 12 UTC
Wind 3 kt aus unterschiedlichen Richtungen
Sichtweite: 6000 m
Himmel klar
Zeitweise
vom 19 um 10 UTC bis 19 um 18 UTC
Wind 12 kt aus Südost

TAF: OKBK 190445Z 1906/2012 VRB03KT 6000 SKC TEMPO 1910/1918 14012KT

Wetterbeobachtungen und Prognosen von mehr als 4000 Flughäfen (METAR und TAF Bericht).

Die verfügbaren Stationen werden durch gelbe und rote Markierungen auf der Karte dargestellt.

Führen Sie die Maus auf sie, um den Namen der Station zu sehen.

Darauf klicken, um die Beobachtung von Wetterbeobachtungen und Prognosen zu sehen.

Um die Karte zu ändern : klicken Sie auf den grünen Tasten mit einem schwarzen Kreuz Zum Vergrößern, auf den grünen Button mit einem Gedankenstrich zu verkleinern, oder auf die grünen Pfeile für benachbarte Karten.


METAR-TAF: